SBTT

Details ICAO SBTT (TBT)
Name TABATINGA
Region Brazil
Timezone America/Eirunepe (UTC-5.0)
Plans Departing 12
Arriving 15
Stats Elevation 279 ft / 85 m (AMSL)
Location -4.255669° -69.935829°
Runways 1
Magnetic Variation 9.081° W
Sunrise 2018-05-27 10:41:26 UTC / 2018-05-27 05:41:26 Local
Sunset 2018-05-27 22:35:18 UTC / 2018-05-27 17:35:18 Local
Advertisement - Login to hide

Runways

ID Width Length Bearing (true) Bearing (mag) Surface Threshold Offset Overrun Length
12 105 ft / 32 m 7,067 ft / 2,154 m 115.07° 124.15° Asphalt 0 ft / 0 m 0 ft / 0 m
30 105 ft / 32 m 7,067 ft / 2,154 m 295.06° 304.14° Asphalt 0 ft / 0 m 0 ft / 0 m

Map

Weather


0- 5 10 15 20 25 30 35+ Temperature / ° C

Clouds and Precipitation
Forecast for 2018-05-27 18:00 UTC. Updated an hour ago

Ground ~20,000 ft ~40,000 ft Winds

METAR

SBTT 271800Z 26004KT 9999 SCT020 FEW025TCU 30/23 Q1012

TAF

TAF SBTT 271000Z 2712/2812 18005KT 9999 SCT010 TX30/2718Z TN21/2810Z BECMG 2715/2717 15005KT SCT020 FEW025TCU PROB30 TEMPO 2718/2721 8000 TSRA SCT020 FEW025CB BECMG 2722/2724 00000KT FEW015 RMK PCQ

Frequencies

Tower 125.90 MHz RDO
Warning: Do not use this data for real-world aviation or navigation. No guarantee of current accuracy is given.